首页
METAR-TAF:

METAR-TAF

机场 :

拉纳卡国际机场

拉纳卡, 塞浦路斯

纬度: 34-53N, 经度: 033-38E, 海拔: 2米

当前天气观测

该预报发布于33分钟前的23:30 UTC
风速4节,风向西
温度 22°C
湿度 88%
气压 1010 hPa
能见度10公里或以上
1500米以下无云,无积雨云

METAR: LCLK 192330Z 28004KT CAVOK 22/20 Q1010 NOSIG

时间: 03:03 (00:03 UTC)

预报

该预报发布于33分钟前的23:30 UTC
预报有效从20日的 00点(UTC)到 20日的 24点(UTC)
风速7节,风向西
能见度10公里或以上
少量云层高于2000英尺
几率 30% :
短暂存在
从 20日的 00点(UTC)到 20日的 05点(UTC)
能見度: 2000
多云层高于300英尺
轻雾
成为
从 20日的 07点(UTC)到 20日的 10点(UTC)
风速18节,风向南转西南
成为
从 20日的 17点(UTC)到 20日的 19点(UTC)
风速9节,风向西转西北

TAF: LCLK 192330Z 2000/2024 28007KT 9999 FEW020 PROB30 TEMPO 2000/2005 2000 BR BKN003 BECMG 2007/2010 21018KT BECMG 2017/2019 29009KT

超过4000个机场的气象观测和天气预报(METAR&TAF报告)。

可查询的气象台以黄色和红色小点在地图上表示。

将鼠标移到小点上方,可查看气象台名称。

然后点击查看天气观测和预报。

如需切换地图:点击带黑十字的绿色按钮放大地图;点击带横线的绿色按钮缩小地图;或者点击绿色箭头查看邻近地区的地图。


METAR-TAF: